Time;durP1;ratioP1;P1;durP2;ratioP2;P2;SDS_P1;SDS_P2;PMS_P1;PMS_P2;Temp;Humidity;BMP_temperature;BMP_pressure;BME280_temperature;BME280_humidity;BME280_pressure;Samples;Min_cycle;Max_cycle;Signal;HPM_P1;HPM_P2
2022/11/20 00:02:23;;;;;;;15.17;9.27;;;0.40;99.90;;;;;;4968704;28;20042;-81
2022/11/20 00:04:49;;;;;;;17.08;9.45;;;0.40;99.90;;;;;;4963713;28;20149;-81
2022/11/20 00:07:14;;;;;;;14.60;8.23;;;0.40;99.90;;;;;;4984639;28;20390;-81
2022/11/20 00:09:40;;;;;;;14.67;8.23;;;0.40;99.90;;;;;;4965773;28;20316;-81
2022/11/20 00:12:06;;;;;;;13.67;7.60;;;0.40;99.90;;;;;;4965997;28;20049;-81
2022/11/20 00:14:31;;;;;;;15.03;8.30;;;0.40;99.90;;;;;;4949933;28;20677;-81
2022/11/20 00:16:57;;;;;;;14.32;7.85;;;0.40;99.90;;;;;;4984597;28;20088;-81
2022/11/20 00:19:23;;;;;;;15.07;8.07;;;1.70;99.90;;;;;;4987152;28;20034;-81
2022/11/20 00:21:51;;;;;;;15.57;8.30;;;1.30;99.90;;;;;;4968327;28;20045;-81
2022/11/20 00:24:17;;;;;;;15.30;8.77;;;0.40;99.90;;;;;;4950517;28;20706;-81
2022/11/20 00:26:42;;;;;;;15.13;8.40;;;0.40;99.90;;;;;;4979129;28;20084;-81
2022/11/20 00:29:10;;;;;;;14.20;7.93;;;0.40;99.90;;;;;;4991237;28;20062;-81
2022/11/20 00:31:35;;;;;;;16.02;8.38;;;0.40;99.90;;;;;;4970328;28;20033;-81
2022/11/20 00:34:01;;;;;;;14.80;8.90;;;0.30;99.90;;;;;;4968272;28;20129;-81
2022/11/20 00:36:28;;;;;;;17.57;9.27;;;0.40;99.90;;;;;;4967343;28;20282;-81
2022/11/20 00:38:58;;;;;;;17.67;10.13;;;0.40;99.90;;;;;;4967374;28;20486;-81
2022/11/20 00:41:25;;;;;;;18.98;9.55;;;0.30;99.90;;;;;;4983532;28;20039;-81
2022/11/20 00:43:53;;;;;;;17.67;9.73;;;1.10;99.90;;;;;;4983668;28;20117;-81
2022/11/20 00:46:22;;;;;;;16.88;9.57;;;0.40;99.90;;;;;;4981208;28;20055;-81
2022/11/20 00:48:48;;;;;;;18.98;9.82;;;0.40;99.90;;;;;;4981764;28;20042;-81
2022/11/20 00:51:19;;;;;;;17.75;9.98;;;1.20;99.90;;;;;;4990875;28;20030;-82
2022/11/20 00:53:45;;;;;;;18.20;10.00;;;0.40;99.90;;;;;;4986027;28;20228;-81
2022/11/20 00:56:13;;;;;;;16.98;9.95;;;0.50;99.90;;;;;;4978829;28;20524;-81
2022/11/20 00:58:41;;;;;;;17.00;9.90;;;0.40;99.90;;;;;;4967539;28;20041;-81
2022/11/20 01:01:21;;;;;;;17.75;9.73;;;0.40;99.90;;;;;;4983766;28;20046;-81
2022/11/20 01:03:51;;;;;;;19.48;10.48;;;0.40;99.90;;;;;;4967622;28;20042;-82
2022/11/20 01:06:24;;;;;;;17.52;9.52;;;0.40;99.90;;;;;;4983256;28;20035;-81
2022/11/20 01:08:52;;;;;;;19.73;10.77;;;0.40;99.90;;;;;;4967067;28;20121;-81
2022/11/20 01:11:21;;;;;;;20.67;10.98;;;0.50;99.90;;;;;;4986144;28;20031;-81
2022/11/20 01:13:48;;;;;;;20.20;10.77;;;0.40;99.90;;;;;;4990275;28;20039;-81
2022/11/20 01:16:29;;;;;;;18.50;10.57;;;0.40;99.90;;;;;;4985467;28;20039;-81
2022/11/20 01:18:57;;;;;;;17.73;10.35;;;0.40;99.90;;;;;;4981159;28;20058;-81
2022/11/20 01:21:28;;;;;;;22.00;10.77;;;0.40;99.90;;;;;;4983612;28;20090;-81
2022/11/20 01:23:54;;;;;;;21.30;10.95;;;0.40;99.90;;;;;;4986435;28;20081;-81
2022/11/20 01:26:23;;;;;;;19.33;10.23;;;0.40;99.90;;;;;;4978796;28;20074;-81
2022/11/20 01:28:55;;;;;;;17.80;10.45;;;0.40;99.90;;;;;;4964963;28;20049;-80
2022/11/20 01:31:29;;;;;;;17.75;9.68;;;0.50;99.90;;;;;;4981762;28;20030;-81
2022/11/20 01:33:58;;;;;;;20.25;10.75;;;0.50;99.90;;;;;;4965195;28;20038;-81
2022/11/20 01:36:25;;;;;;;19.40;11.13;;;0.50;99.90;;;;;;4969135;28;20125;-81
2022/11/20 01:38:57;;;;;;;18.73;11.52;;;0.50;99.90;;;;;;4966351;28;20518;-81
2022/11/20 01:44:11;;;;;;;21.83;11.45;;;0.70;99.90;;;;;;4985861;28;20054;-81
2022/11/20 01:46:40;;;;;;;20.38;11.20;;;0.50;99.90;;;;;;4994262;28;20050;-81
2022/11/20 01:49:19;;;;;;;21.42;11.55;;;0.50;99.90;;;;;;5001243;28;20046;-81
2022/11/20 01:52:00;;;;;;;19.60;11.43;;;0.50;99.90;;;;;;4985011;28;20034;-81
2022/11/20 01:54:35;;;;;;;20.55;11.30;;;0.50;99.90;;;;;;4987458;28;20054;-82
2022/11/20 01:57:01;;;;;;;20.73;11.50;;;0.60;99.90;;;;;;4987253;28;20427;-81
2022/11/20 01:59:29;;;;;;;19.95;11.52;;;0.60;99.90;;;;;;4970978;28;20039;-81
2022/11/20 02:01:55;;;;;;;22.33;11.82;;;0.90;99.90;;;;;;4957135;28;20141;-82
2022/11/20 02:04:22;;;;;;;21.55;12.20;;;0.60;99.90;;;;;;4949991;28;20034;-82
2022/11/20 02:06:56;;;;;;;21.00;12.18;;;0.60;99.90;;;;;;4961888;28;20525;-81
2022/11/20 02:09:22;;;;;;;22.85;12.15;;;0.60;99.90;;;;;;4984739;28;20053;-81
2022/11/20 02:11:47;;;;;;;22.23;12.07;;;0.50;99.90;;;;;;4983990;28;20042;-81
2022/11/20 02:14:14;;;;;;;23.13;12.15;;;0.50;99.90;;;;;;4963352;28;20454;-81
2022/11/20 02:16:45;;;;;;;21.52;12.50;;;0.60;99.90;;;;;;4968665;28;20070;-81
2022/11/20 02:19:27;;;;;;;22.75;12.38;;;0.60;99.90;;;;;;4993956;28;20049;-81
2022/11/20 02:22:06;;;;;;;21.92;12.57;;;0.50;99.90;;;;;;4985761;28;20073;-81
2022/11/20 02:24:31;;;;;;;20.02;12.00;;;0.50;99.90;;;;;;4968298;28;20039;-81
2022/11/20 02:27:09;;;;;;;19.75;11.35;;;0.50;99.90;;;;;;4988458;28;20049;-81
2022/11/20 02:29:41;;;;;;;19.58;11.25;;;0.50;99.90;;;;;;4984881;28;20112;-81
2022/11/20 02:32:17;;;;;;;23.08;12.82;;;0.50;99.90;;;;;;4983852;28;20486;-81
2022/11/20 02:34:42;;;;;;;21.17;12.05;;;0.50;99.90;;;;;;4988392;28;20030;-81
2022/11/20 02:37:08;;;;;;;19.77;12.10;;;0.50;99.90;;;;;;4985726;28;20034;-81
2022/11/20 02:39:34;;;;;;;24.65;12.52;;;0.50;99.90;;;;;;4983730;28;20050;-81
2022/11/20 02:42:01;;;;;;;20.67;12.10;;;0.50;99.90;;;;;;4985455;28;20487;-82
2022/11/20 02:44:26;;;;;;;20.88;11.73;;;2.50;99.90;;;;;;4985429;28;20653;-82
2022/11/20 02:46:52;;;;;;;21.77;11.90;;;0.50;99.90;;;;;;4982738;28;20073;-82
2022/11/20 02:49:18;;;;;;;21.27;11.17;;;0.50;99.90;;;;;;4985959;28;20658;-82
2022/11/20 02:51:43;;;;;;;19.00;10.90;;;1.70;99.90;;;;;;4974298;28;20027;-82
2022/11/20 02:54:09;;;;;;;20.43;11.63;;;0.50;99.90;;;;;;4969797;28;20102;-82
2022/11/20 02:56:38;;;;;;;19.17;11.10;;;0.60;99.90;;;;;;4985879;28;20050;-82
2022/11/20 02:59:04;;;;;;;19.33;10.10;;;0.90;99.90;;;;;;4980734;28;20401;-82
2022/11/20 03:01:30;;;;;;;18.83;10.50;;;0.60;99.90;;;;;;4966622;28;20035;-82
2022/11/20 03:03:55;;;;;;;19.90;10.63;;;0.60;99.90;;;;;;4959275;28;20129;-82
2022/11/20 03:06:21;;;;;;;20.42;10.23;;;0.60;99.90;;;;;;4982848;28;20722;-82
2022/11/20 03:08:47;;;;;;;18.73;10.32;;;0.70;99.90;;;;;;4982620;28;20406;-82
2022/11/20 03:11:13;;;;;;;19.08;10.73;;;0.70;99.90;;;;;;4976001;28;20479;-82
2022/11/20 03:13:39;;;;;;;16.58;9.10;;;0.70;99.90;;;;;;4981223;28;20453;-81
2022/11/20 03:16:26;;;;;;;17.90;9.90;;;0.70;99.90;;;;;;4985783;28;20049;-82
2022/11/20 03:18:53;;;;;;;18.30;9.23;;;1.30;99.90;;;;;;4973083;28;20054;-82
2022/11/20 03:21:18;;;;;;;18.27;9.52;;;0.70;99.90;;;;;;4992273;28;20042;-81
2022/11/20 03:23:44;;;;;;;17.13;9.50;;;0.70;99.90;;;;;;4973955;28;20411;-81
2022/11/20 03:26:19;;;;;;;17.15;9.48;;;2.10;99.90;;;;;;4992208;28;20039;-81
2022/11/20 03:28:50;;;;;;;18.05;9.02;;;0.70;99.90;;;;;;4961975;28;20124;-81
2022/11/20 03:31:19;;;;;;;15.63;9.27;;;0.80;99.90;;;;;;4982621;28;20050;-81
2022/11/20 03:33:44;;;;;;;16.65;9.20;;;0.80;99.90;;;;;;4980260;28;20387;-81
2022/11/20 03:36:13;;;;;;;17.50;9.13;;;0.90;99.90;;;;;;4985613;28;20039;-82
2022/11/20 03:38:39;;;;;;;15.02;8.43;;;0.70;99.90;;;;;;4980530;28;20403;-82
2022/11/20 03:41:09;;;;;;;17.42;9.75;;;0.80;99.90;;;;;;4982115;28;20599;-82
2022/11/20 03:43:35;;;;;;;16.50;9.02;;;0.80;99.90;;;;;;4971617;28;20047;-82
2022/11/20 03:46:01;;;;;;;17.00;9.38;;;1.00;99.90;;;;;;4979449;28;20112;-82
2022/11/20 03:48:27;;;;;;;16.27;9.55;;;0.80;99.90;;;;;;4984911;28;20450;-81
2022/11/20 03:51:05;;;;;;;;;;;0.80;99.90;;;;;;4984651;28;20057;-81
2022/11/20 03:53:31;;;;;;;18.95;9.15;;;0.80;99.90;;;;;;4985600;28;20000;-81
2022/11/20 03:55:57;;;;;;;16.13;8.77;;;0.80;99.90;;;;;;4964066;28;20166;-81
2022/11/20 03:58:22;;;;;;;15.77;9.63;;;0.80;99.90;;;;;;4991549;28;20293;-81
2022/11/20 04:00:48;;;;;;;15.20;8.73;;;2.20;99.90;;;;;;4970975;28;20043;-81
2022/11/20 04:03:14;;;;;;;14.10;8.23;;;0.80;99.90;;;;;;4966445;28;20042;-81
2022/11/20 04:05:39;;;;;;;16.42;8.82;;;0.80;99.90;;;;;;4987241;28;20038;-81
2022/11/20 04:08:05;;;;;;;15.10;8.60;;;0.70;99.90;;;;;;4974940;28;20116;-81
2022/11/20 04:10:31;;;;;;;15.43;9.00;;;0.80;99.90;;;;;;4987149;28;20499;-81
2022/11/20 04:12:56;;;;;;;15.73;9.05;;;0.70;99.90;;;;;;4983872;28;20101;-81
2022/11/20 04:15:22;;;;;;;15.77;8.60;;;0.70;99.90;;;;;;4966737;28;20038;-81
2022/11/20 04:17:48;;;;;;;16.27;8.60;;;0.80;99.90;;;;;;4984134;28;20176;-81
2022/11/20 04:20:14;;;;;;;13.50;7.93;;;0.80;99.90;;;;;;4991377;28;20046;-81
2022/11/20 04:22:40;;;;;;;13.38;7.68;;;0.80;99.90;;;;;;4950005;28;20089;-81
2022/11/20 04:25:06;;;;;;;13.07;8.32;;;0.80;99.90;;;;;;4991384;28;20062;-81
2022/11/20 04:27:31;;;;;;;15.60;7.97;;;0.80;99.90;;;;;;4989602;28;20045;-81
2022/11/20 04:29:57;;;;;;;15.30;8.23;;;0.80;99.90;;;;;;4965412;28;20035;-81
2022/11/20 04:32:23;;;;;;;14.77;8.10;;;0.80;99.90;;;;;;4975322;28;20061;-81
2022/11/20 04:34:48;;;;;;;16.25;7.60;;;2.00;99.90;;;;;;4972430;28;20042;-81
2022/11/20 04:37:14;;;;;;;19.58;9.45;;;0.80;99.90;;;;;;4969856;28;20031;-81
2022/11/20 04:39:40;;;;;;;15.53;8.60;;;0.80;99.90;;;;;;4984075;28;20507;-80
2022/11/20 04:44:50;;;;;;;15.07;8.02;;;0.80;99.90;;;;;;4984748;28;20050;-81
2022/11/20 04:47:15;;;;;;;16.17;9.23;;;0.80;99.90;;;;;;4967716;28;20189;-81
2022/11/20 04:49:41;;;;;;;15.82;8.95;;;0.80;99.90;;;;;;4968728;28;20101;-81
2022/11/20 04:52:06;;;;;;;14.83;8.63;;;0.90;99.90;;;;;;4990853;28;20042;-81
2022/11/20 04:54:32;;;;;;;15.90;8.60;;;0.80;99.90;;;;;;4991060;28;20565;-81
2022/11/20 04:56:58;;;;;;;17.17;8.60;;;0.80;99.90;;;;;;4967405;28;20034;-81
2022/11/20 04:59:23;;;;;;;15.23;8.80;;;0.80;99.90;;;;;;4965272;28;20039;-81
2022/11/20 05:01:49;;;;;;;17.67;9.30;;;0.80;99.90;;;;;;4985787;28;20112;-81
2022/11/20 05:04:15;;;;;;;14.43;7.28;;;0.80;99.90;;;;;;4991131;28;20038;-81
2022/11/20 05:06:40;;;;;;;18.03;8.60;;;0.80;99.90;;;;;;4967732;28;20038;-82
2022/11/20 05:09:06;;;;;;;17.73;8.70;;;0.80;99.90;;;;;;4961731;28;20566;-81
2022/11/20 05:11:32;;;;;;;14.50;8.60;;;0.80;99.90;;;;;;4991052;28;20305;-82
2022/11/20 05:13:59;;;;;;;18.40;8.40;;;0.80;99.90;;;;;;4962394;28;20310;-81
2022/11/20 05:16:25;;;;;;;15.13;8.30;;;0.80;99.90;;;;;;4967977;28;20093;-81
2022/11/20 05:18:53;;;;;;;14.45;8.00;;;0.80;99.90;;;;;;4990760;28;20038;-81
2022/11/20 05:21:18;;;;;;;15.60;8.20;;;0.70;99.90;;;;;;4967432;28;20141;-81
2022/11/20 05:23:45;;;;;;;16.20;8.85;;;1.00;99.90;;;;;;4988589;28;20066;-81
2022/11/20 05:26:21;;;;;;;16.27;9.05;;;0.70;99.90;;;;;;4990373;28;20068;-81
2022/11/20 05:28:51;;;;;;;15.23;8.82;;;0.70;99.90;;;;;;4988848;28;20038;-82
2022/11/20 05:31:19;;;;;;;15.88;7.88;;;0.70;99.90;;;;;;4972142;28;20348;-82
2022/11/20 05:33:45;;;;;;;15.77;8.15;;;0.70;99.90;;;;;;4990637;28;20096;-82
2022/11/20 05:36:12;;;;;;;19.38;8.88;;;0.70;99.90;;;;;;4971408;28;20388;-82
2022/11/20 05:38:39;;;;;;;16.65;8.95;;;0.70;99.90;;;;;;4979063;28;20406;-82
2022/11/20 05:41:15;;;;;;;;;;;0.70;99.90;;;;;;4988233;28;20053;-82
2022/11/20 05:43:42;;;;;;;15.10;7.97;;;0.70;99.90;;;;;;4986944;28;19917;-82
2022/11/20 05:46:10;;;;;;;16.75;7.85;;;1.80;99.90;;;;;;4982914;28;20066;-82
2022/11/20 05:48:37;;;;;;;14.38;7.88;;;0.70;99.90;;;;;;4978901;28;20070;-82
2022/11/20 05:51:05;;;;;;;13.68;7.40;;;0.70;99.90;;;;;;4985361;28;20035;-82
2022/11/20 05:53:32;;;;;;;14.30;7.90;;;0.70;99.90;;;;;;4971923;28;20486;-81
2022/11/20 05:55:58;;;;;;;12.13;6.93;;;0.80;99.90;;;;;;4966868;28;20042;-81
2022/11/20 05:58:24;;;;;;;14.97;8.30;;;0.80;99.90;;;;;;4991118;28;20048;-82
2022/11/20 06:00:49;;;;;;;14.38;8.07;;;0.80;99.90;;;;;;4971914;28;20042;-82
2022/11/20 06:03:15;;;;;;;14.48;8.35;;;0.80;99.90;;;;;;4989906;28;20049;-82
2022/11/20 06:05:41;;;;;;;14.67;7.50;;;0.80;99.90;;;;;;4990321;28;20070;-81
2022/11/20 06:08:06;;;;;;;13.37;7.67;;;0.80;99.90;;;;;;4989620;28;20864;-82
2022/11/20 06:10:32;;;;;;;14.40;7.67;;;1.90;99.90;;;;;;4990733;28;20121;-82
2022/11/20 06:12:58;;;;;;;15.07;7.97;;;2.20;99.90;;;;;;4982704;28;20061;-82
2022/11/20 06:15:24;;;;;;;13.65;7.82;;;0.80;99.90;;;;;;4990096;28;20365;-81
2022/11/20 06:17:53;;;;;;;14.18;8.10;;;0.80;99.90;;;;;;4990124;28;20117;-81
2022/11/20 06:20:19;;;;;;;14.20;7.68;;;1.00;99.90;;;;;;4981658;28;20034;-81
2022/11/20 06:22:45;;;;;;;15.52;8.30;;;0.80;99.90;;;;;;4986823;28;20042;-81
2022/11/20 06:25:11;;;;;;;14.05;7.80;;;0.80;99.90;;;;;;4967557;28;20065;-81
2022/11/20 06:27:36;;;;;;;13.43;8.10;;;0.80;99.90;;;;;;4993995;28;20026;-82
2022/11/20 06:30:03;;;;;;;14.47;8.20;;;0.80;99.90;;;;;;4988083;28;20095;-81
2022/11/20 06:32:28;;;;;;;13.90;7.50;;;0.80;99.90;;;;;;4991385;28;20286;-81
2022/11/20 06:34:54;;;;;;;14.13;7.20;;;0.80;99.90;;;;;;4993469;28;20455;-81
2022/11/20 06:37:20;;;;;;;12.60;6.87;;;0.80;99.90;;;;;;4993099;28;20304;-81
2022/11/20 06:39:45;;;;;;;14.95;7.47;;;1.50;99.90;;;;;;4993526;28;20053;-81
2022/11/20 06:42:11;;;;;;;15.83;8.23;;;0.80;99.90;;;;;;4993029;28;20066;-81
2022/11/20 06:44:36;;;;;;;11.13;6.83;;;0.90;99.90;;;;;;4993245;28;20108;-81
2022/11/20 06:47:02;;;;;;;13.30;7.10;;;0.80;99.90;;;;;;4966946;28;20289;-81
2022/11/20 06:49:28;;;;;;;12.33;7.30;;;0.90;99.90;;;;;;4965194;28;20047;-82
2022/11/20 06:51:53;;;;;;;13.20;7.30;;;0.80;99.90;;;;;;4981195;28;20795;-81
2022/11/20 06:54:19;;;;;;;12.70;7.37;;;0.90;99.90;;;;;;4971536;28;20286;-81
2022/11/20 06:56:48;;;;;;;14.30;7.83;;;0.90;99.90;;;;;;4972605;28;20046;-81
2022/11/20 06:59:14;;;;;;;12.93;6.97;;;0.80;99.90;;;;;;4967251;28;20047;-81
2022/11/20 07:01:40;;;;;;;12.35;6.78;;;0.80;99.90;;;;;;4972353;28;20046;-81
2022/11/20 07:04:05;;;;;;;14.40;7.53;;;1.20;99.90;;;;;;4992676;28;20073;-81
2022/11/20 07:06:31;;;;;;;15.63;7.63;;;0.90;99.90;;;;;;4967235;28;20053;-82
2022/11/20 07:08:57;;;;;;;12.00;7.05;;;0.90;99.90;;;;;;4969618;28;20309;-82
2022/11/20 07:11:23;;;;;;;15.10;7.10;;;0.90;99.90;;;;;;4992564;28;20045;-80
2022/11/20 07:13:49;;;;;;;13.30;7.20;;;1.00;99.90;;;;;;4987889;28;20089;-81
2022/11/20 07:16:15;;;;;;;12.40;6.90;;;0.90;99.90;;;;;;4992231;28;20491;-81
2022/11/20 07:18:41;;;;;;;13.00;7.57;;;0.90;99.90;;;;;;4985406;28;20487;-81
2022/11/20 07:21:09;;;;;;;13.80;7.18;;;0.90;99.90;;;;;;4968782;28;20046;-81
2022/11/20 07:23:35;;;;;;;13.43;6.90;;;0.90;99.90;;;;;;4980745;28;20034;-81
2022/11/20 07:26:05;;;;;;;13.57;6.75;;;0.90;99.90;;;;;;4985446;28;20524;-81
2022/11/20 07:28:31;;;;;;;12.85;6.78;;;1.00;99.90;;;;;;4985339;28;20117;-81
2022/11/20 07:30:57;;;;;;;14.18;7.03;;;1.90;99.90;;;;;;4969004;28;20126;-81
2022/11/20 07:33:22;;;;;;;13.00;7.03;;;1.00;99.90;;;;;;4968370;28;20394;-81
2022/11/20 07:35:48;;;;;;;13.17;7.07;;;1.00;99.90;;;;;;4973530;28;20282;-81
2022/11/20 07:38:14;;;;;;;13.50;7.30;;;1.00;99.90;;;;;;4991891;28;20034;-81
2022/11/20 07:40:39;;;;;;;14.03;7.77;;;1.00;99.90;;;;;;4971979;28;20773;-81
2022/11/20 07:43:05;;;;;;;12.63;7.33;;;1.00;99.90;;;;;;4968700;28;20050;-81
2022/11/20 07:45:31;;;;;;;13.80;7.57;;;1.00;99.90;;;;;;4966229;28;20348;-81
2022/11/20 07:47:56;;;;;;;12.70;7.17;;;1.00;99.90;;;;;;4971324;28;20078;-81
2022/11/20 07:50:22;;;;;;;13.43;7.90;;;2.00;99.90;;;;;;4973162;28;20034;-81
2022/11/20 07:52:48;;;;;;;16.20;7.45;;;1.00;99.90;;;;;;4991968;28;20352;-81
2022/11/20 07:55:15;;;;;;;11.63;6.88;;;1.00;99.90;;;;;;4952651;28;20126;-81
2022/11/20 07:57:41;;;;;;;11.23;6.75;;;1.10;99.90;;;;;;4984748;28;20042;-81
2022/11/20 08:00:09;;;;;;;14.13;7.57;;;1.30;99.90;;;;;;4965896;28;20030;-82
2022/11/20 08:02:38;;;;;;;12.88;7.50;;;1.10;99.90;;;;;;4982191;28;20041;-81
2022/11/20 08:05:05;;;;;;;12.23;7.15;;;1.10;99.90;;;;;;4991769;28;20414;-81
2022/11/20 08:07:36;;;;;;;13.40;7.20;;;1.10;99.90;;;;;;4991267;28;20038;-82
2022/11/20 08:10:02;;;;;;;12.38;6.75;;;1.20;99.90;;;;;;4981931;28;20049;-81
2022/11/20 08:15:12;;;;;;;11.55;7.20;;;1.20;99.90;;;;;;4974934;28;20046;-81
2022/11/20 08:17:37;;;;;;;14.35;7.00;;;1.30;99.90;;;;;;4953974;28;20038;-82
2022/11/20 08:20:04;;;;;;;13.63;7.75;;;1.20;99.90;;;;;;4968367;28;20501;-83
2022/11/20 08:22:29;;;;;;;14.18;7.78;;;1.20;99.90;;;;;;4968474;28;20046;-82
2022/11/20 08:24:55;;;;;;;11.70;7.30;;;2.00;99.90;;;;;;4969384;28;20444;-81
2022/11/20 08:27:21;;;;;;;12.68;6.85;;;1.30;99.90;;;;;;4966125;28;20487;-84
2022/11/20 08:29:46;;;;;;;11.18;6.65;;;1.30;99.90;;;;;;4960223;28;20562;-82
2022/11/20 08:32:12;;;;;;;13.90;7.03;;;1.30;99.90;;;;;;4966514;28;20065;-82
2022/11/20 08:34:38;;;;;;;11.52;6.65;;;1.40;99.90;;;;;;4964195;28;20045;-82
2022/11/20 08:37:04;;;;;;;11.63;5.93;;;2.80;99.90;;;;;;4971529;28;20117;-82
2022/11/20 08:39:29;;;;;;;12.20;7.30;;;1.30;99.90;;;;;;4984103;28;20034;-81
2022/11/20 08:41:55;;;;;;;11.47;6.67;;;1.30;99.90;;;;;;4965835;28;20046;-80
2022/11/20 08:44:20;;;;;;;10.87;6.27;;;1.90;99.90;;;;;;4966043;28;20045;-82
2022/11/20 08:46:46;;;;;;;12.77;7.33;;;2.50;99.90;;;;;;4969358;28;20294;-82
2022/11/20 08:49:14;;;;;;;10.55;6.38;;;1.20;99.90;;;;;;4971073;28;20503;-80
2022/11/20 08:51:40;;;;;;;12.15;6.10;;;2.10;99.90;;;;;;4985576;28;20061;-81
2022/11/20 08:54:06;;;;;;;11.45;6.57;;;1.30;99.90;;;;;;4991960;28;20046;-81
2022/11/20 08:56:32;;;;;;;11.32;6.93;;;1.30;99.90;;;;;;4983984;28;20038;-81
2022/11/20 08:59:01;;;;;;;13.02;6.60;;;2.30;99.90;;;;;;4991161;28;20068;-81
2022/11/20 09:01:28;;;;;;;12.15;6.63;;;1.40;99.90;;;;;;4952567;28;20117;-84
2022/11/20 09:03:59;;;;;;;13.80;6.65;;;2.30;99.90;;;;;;4981839;28;20042;-82
2022/11/20 09:06:25;;;;;;;13.02;6.40;;;1.30;99.90;;;;;;4983524;28;20074;-81
2022/11/20 09:08:54;;;;;;;11.25;6.20;;;1.40;99.90;;;;;;4965118;28;20124;-82
2022/11/20 09:11:20;;;;;;;10.95;6.25;;;1.40;99.90;;;;;;4954796;28;20034;-82
2022/11/20 09:13:46;;;;;;;11.90;6.43;;;1.40;99.90;;;;;;4982193;28;20054;-82
2022/11/20 09:16:11;;;;;;;11.30;6.30;;;1.30;99.90;;;;;;4968329;28;20406;-84
2022/11/20 09:18:37;;;;;;;11.37;6.40;;;1.40;99.90;;;;;;4991687;28;20144;-83
2022/11/20 09:21:10;;;;;;;;;;;1.40;99.90;;;;;;4966211;28;20051;-83
2022/11/20 09:23:37;;;;;;;13.82;6.38;;;1.40;99.90;;;;;;4983701;28;19921;-83
2022/11/20 09:26:09;;;;;;;12.73;6.95;;;2.00;99.90;;;;;;4949005;28;20049;-84
2022/11/20 09:28:35;;;;;;;10.80;6.25;;;1.40;99.90;;;;;;4982297;28;20513;-83
2022/11/20 09:31:04;;;;;;;13.35;6.90;;;1.40;99.90;;;;;;4985576;28;20046;-85
2022/11/20 09:33:30;;;;;;;13.43;6.60;;;1.40;99.90;;;;;;4976108;28;20450;-84
2022/11/20 09:35:55;;;;;;;10.52;6.47;;;1.40;99.90;;;;;;4974060;28;20044;-86
2022/11/20 09:38:21;;;;;;;9.82;5.82;;;2.70;99.90;;;;;;4961846;28;20038;-84
2022/11/20 09:40:57;;;;;;;9.70;6.27;;;2.00;99.90;;;;;;4970998;28;20120;-86
2022/11/20 09:44:04;;;;;;;10.97;5.50;;;1.40;99.90;;;;;;4983292;28;20305;-85
2022/11/20 09:46:41;;;;;;;13.02;6.97;;;1.50;99.90;;;;;;4944407;28;20057;-84
2022/11/20 09:49:35;;;;;;;10.65;6.03;;;3.10;99.90;;;;;;4965263;28;20145;-86
2022/11/20 09:52:15;;;;;;;10.32;5.93;;;1.60;99.90;;;;;;4966890;28;20684;-83
2022/11/20 09:54:41;;;;;;;10.38;6.00;;;1.60;99.90;;;;;;4974880;28;20093;-82
2022/11/20 09:57:11;;;;;;;11.68;6.45;;;3.40;99.90;;;;;;4971473;28;20039;-81
2022/11/20 09:59:48;;;;;;;11.27;6.13;;;3.00;99.90;;;;;;4994801;28;20042;-81
2022/11/20 10:02:16;;;;;;;11.43;6.80;;;1.80;99.90;;;;;;4976465;28;20038;-83
2022/11/20 10:04:48;;;;;;;10.50;5.63;;;1.80;99.90;;;;;;4994670;28;20627;-82
2022/11/20 10:07:20;;;;;;;9.55;5.28;;;1.70;99.90;;;;;;4974071;28;20061;-82
2022/11/20 10:09:56;;;;;;;9.50;5.65;;;2.20;99.90;;;;;;4987958;28;20042;-82
2022/11/20 10:12:59;;;;;;;10.82;6.20;;;1.80;99.90;;;;;;4975886;28;20042;-83
2022/11/20 10:15:54;;;;;;;8.63;5.03;;;1.80;99.90;;;;;;4987206;28;20054;-82
2022/11/20 10:18:58;;;;;;;10.75;6.03;;;1.80;99.90;;;;;;4990015;28;20046;-82
2022/11/20 10:21:54;;;;;;;10.27;5.65;;;1.80;99.90;;;;;;4990589;28;20121;-83
2022/11/20 10:24:42;;;;;;;10.68;5.68;;;1.80;99.90;;;;;;4986658;28;20043;-83
2022/11/20 10:27:29;;;;;;;12.40;6.40;;;1.80;99.90;;;;;;4995820;28;20398;-83
2022/11/20 10:30:13;;;;;;;10.57;5.57;;;1.90;99.90;;;;;;4960538;28;20042;-84
2022/11/20 10:32:42;;;;;;;11.05;6.00;;;2.00;99.90;;;;;;4970097;28;20777;-84
2022/11/20 10:35:19;;;;;;;9.02;5.50;;;2.00;99.90;;;;;;4987256;28;20093;-82
2022/11/20 10:37:48;;;;;;;10.00;5.72;;;2.00;99.90;;;;;;4966718;28;20117;-83
2022/11/20 10:40:50;;;;;;;10.80;5.45;;;2.00;99.90;;;;;;4981518;28;20104;-83
2022/11/20 10:43:32;;;;;;;11.38;5.72;;;2.20;99.90;;;;;;4975410;28;20462;-82
2022/11/20 10:46:08;;;;;;;11.30;6.18;;;3.30;99.90;;;;;;4987312;28;20083;-83
2022/11/20 10:48:36;;;;;;;10.88;5.80;;;2.30;99.90;;;;;;5001010;28;20483;-82
2022/11/20 10:51:37;;;;;;;9.90;5.45;;;2.40;99.90;;;;;;4978736;28;20039;-82
2022/11/20 10:54:32;;;;;;;10.45;5.68;;;2.50;99.90;;;;;;4992038;28;20035;-81
2022/11/20 10:57:12;;;;;;;9.48;5.70;;;2.50;99.90;;;;;;4998758;28;20042;-83
2022/11/20 10:59:51;;;;;;;10.93;5.85;;;2.50;99.90;;;;;;4970111;28;20085;-83
2022/11/20 11:02:23;;;;;;;9.70;5.93;;;2.60;99.90;;;;;;4984484;28;20039;-83
2022/11/20 11:04:53;;;;;;;10.48;5.80;;;2.60;99.90;;;;;;4984478;28;20070;-83
2022/11/20 11:07:25;;;;;;;11.25;5.85;;;2.70;99.90;;;;;;4992594;28;20043;-83
2022/11/20 11:09:53;;;;;;;8.50;5.47;;;2.80;99.90;;;;;;4970292;28;20035;-82
2022/11/20 11:12:21;;;;;;;11.70;5.95;;;2.90;99.90;;;;;;4984302;28;20554;-82
2022/11/20 11:14:52;;;;;;;8.82;5.32;;;4.20;99.90;;;;;;4993572;28;20038;-82
2022/11/20 11:17:28;;;;;;;10.55;6.25;;;4.50;99.90;;;;;;4986717;28;20070;-83
2022/11/20 11:20:04;;;;;;;8.97;5.20;;;2.90;99.90;;;;;;4985198;28;20046;-82
2022/11/20 11:22:32;;;;;;;8.10;4.93;;;2.90;99.90;;;;;;4976016;28;20461;-82
2022/11/20 11:24:59;;;;;;;9.15;5.50;;;4.00;99.90;;;;;;4972552;28;20349;-82
2022/11/20 11:27:27;;;;;;;8.73;5.60;;;3.00;99.90;;;;;;4965315;28;20450;-81
2022/11/20 11:30:13;;;;;;;8.57;5.05;;;2.90;99.90;;;;;;4992593;28;20042;-82
2022/11/20 11:32:39;;;;;;;7.63;4.70;;;2.90;99.90;;;;;;4993305;28;20583;-82
2022/11/20 11:35:17;;;;;;;7.87;5.17;;;2.90;99.90;;;;;;4985187;28;20125;-82
2022/11/20 11:37:44;;;;;;;9.10;5.45;;;3.00;99.90;;;;;;4985034;28;20288;-82
2022/11/20 11:40:11;;;;;;;8.20;5.05;;;3.00;99.90;;;;;;4992433;28;20058;-83
2022/11/20 11:42:43;;;;;;;10.23;5.80;;;3.10;99.90;;;;;;4985808;28;20398;-83
2022/11/20 11:45:17;;;;;;;8.68;5.38;;;3.20;99.90;;;;;;4967289;28;20068;-83
2022/11/20 11:47:42;;;;;;;8.90;5.20;;;3.20;99.90;;;;;;4992503;28;20050;-83
2022/11/20 11:50:08;;;;;;;9.03;5.57;;;3.30;99.90;;;;;;4969978;28;20053;-83
2022/11/20 11:52:53;;;;;;;10.37;5.60;;;4.60;99.90;;;;;;4993519;28;20297;-82
2022/11/20 11:55:46;;;;;;;9.32;5.05;;;3.40;99.90;;;;;;4992691;28;20125;-83
2022/11/20 11:58:15;;;;;;;9.50;5.60;;;3.30;99.90;;;;;;4982748;28;20101;-84
2022/11/20 12:01:07;;;;;;;10.30;5.22;;;3.40;99.90;;;;;;4992625;28;20040;-83
2022/11/20 12:03:43;;;;;;;9.07;4.90;;;3.30;99.90;;;;;;4987934;28;20042;-81
2022/11/20 12:06:14;;;;;;;8.45;4.93;;;3.40;99.90;;;;;;4968116;28;20499;-82
2022/11/20 12:08:52;;;;;;;7.32;4.45;;;3.70;99.90;;;;;;4977827;28;20038;-83
2022/11/20 12:11:37;;;;;;;6.97;4.63;;;4.10;99.90;;;;;;4984063;28;20042;-82
2022/11/20 12:14:31;;;;;;;7.03;4.35;;;4.40;99.90;;;;;;4986175;28;20062;-82
2022/11/20 12:16:57;;;;;;;6.40;3.65;;;5.00;99.90;;;;;;4974919;28;20043;-82
2022/11/20 12:19:23;;;;;;;5.15;3.30;;;5.60;99.90;;;;;;4974365;28;20178;-81
2022/11/20 12:21:54;;;;;;;4.68;3.22;;;6.50;99.90;;;;;;4980798;28;20139;-82
2022/11/20 12:24:28;;;;;;;4.88;3.10;;;6.70;99.90;;;;;;4987537;28;20454;-82
2022/11/20 12:27:26;;;;;;;6.97;3.30;;;7.30;99.90;;;;;;4992941;28;20120;-83
2022/11/20 12:30:07;;;;;;;4.70;2.63;;;7.80;99.90;;;;;;4970373;28;20125;-81
2022/11/20 12:32:36;;;;;;;4.10;3.13;;;8.10;99.90;;;;;;4982231;28;20034;-81
2022/11/20 12:35:14;;;;;;;4.55;3.08;;;8.00;99.90;;;;;;4991438;28;20038;-82
2022/11/20 12:37:48;;;;;;;3.63;3.13;;;8.10;99.90;;;;;;4973371;28;20162;-83
2022/11/20 12:40:44;;;;;;;4.03;3.22;;;8.00;99.90;;;;;;4963639;28;20042;-82
2022/11/20 12:46:10;;;;;;;4.88;3.22;;;7.20;99.90;;;;;;4977473;28;20042;-84
2022/11/20 12:48:52;;;;;;;6.32;3.15;;;6.60;99.90;;;;;;4978263;28;20050;-81
2022/11/20 12:51:46;;;;;;;5.03;3.10;;;6.90;99.90;;;;;;4969560;28;20039;-82
2022/11/20 12:54:36;;;;;;;4.95;3.55;;;6.10;99.90;;;;;;4990793;28;20531;-81
2022/11/20 12:57:33;;;;;;;5.43;3.47;;;5.80;99.90;;;;;;4984179;28;20046;-83
2022/11/20 13:00:04;;;;;;;5.72;4.00;;;5.50;99.90;;;;;;4987558;28;20093;-81
2022/11/20 13:02:51;;;;;;;5.25;3.65;;;5.40;99.90;;;;;;4965735;28;20042;-81
2022/11/20 13:05:32;;;;;;;7.35;3.70;;;5.10;99.90;;;;;;4993345;28;20045;-83
2022/11/20 13:07:59;;;;;;;6.03;3.97;;;5.00;99.90;;;;;;4966133;28;20562;-82
2022/11/20 13:10:34;;;;;;;6.45;4.40;;;5.10;99.90;;;;;;4975988;28;20045;-82
2022/11/20 13:13:23;;;;;;;6.50;3.95;;;5.00;99.90;;;;;;4967045;28;20046;-81
2022/11/20 13:16:19;;;;;;;6.13;3.92;;;5.10;99.90;;;;;;4992090;28;20069;-81